createdAt,value
2018-01-25T00:01:56.847Z,100168.53
2018-01-25T00:04:25.191Z,100153.12
2018-01-25T00:06:53.501Z,100153.09
2018-01-25T00:09:21.848Z,100152.56
2018-01-25T00:11:50.161Z,100152.77
2018-01-25T00:14:18.514Z,100174.53
2018-01-25T00:16:46.833Z,100158.05
2018-01-25T00:19:15.181Z,100159.90
2018-01-25T00:21:43.493Z,100161.81
2018-01-25T00:24:11.837Z,100158.40
2018-01-25T00:26:40.158Z,100160.41
2018-01-25T00:29:08.505Z,100160.91
2018-01-25T00:31:36.816Z,100166.78
2018-01-25T00:34:05.174Z,100165.70
2018-01-25T00:36:33.502Z,100174.16
2018-01-25T00:39:01.842Z,100162.36
2018-01-25T00:41:30.170Z,100167.33
2018-01-25T00:43:58.518Z,100164.27
2018-01-25T00:46:26.848Z,100159.08
2018-01-25T00:48:55.185Z,100158.75
2018-01-25T00:51:23.497Z,100160.63
2018-01-25T00:53:51.845Z,100170.41
2018-01-25T00:56:20.165Z,100171.86
2018-01-25T00:58:48.505Z,100168.02
2018-01-25T01:01:16.821Z,100164.24
2018-01-25T01:03:45.159Z,100171.75
2018-01-25T01:06:13.469Z,100167.09
2018-01-25T01:08:41.826Z,100167.75
2018-01-25T01:11:10.137Z,100169.37
2018-01-25T01:13:38.478Z,100176.19
2018-01-25T01:16:06.810Z,100174.67
2018-01-25T01:18:35.129Z,100181.44
2018-01-25T01:21:03.477Z,100180.04
2018-01-25T01:23:31.793Z,100185.40
2018-01-25T01:26:00.149Z,100187.62
2018-01-25T01:28:28.477Z,100193.09
2018-01-25T01:30:56.821Z,100201.67
2018-01-25T01:33:25.150Z,100247.45
2018-01-25T01:35:53.497Z,100256.02
2018-01-25T01:38:21.821Z,100257.19
2018-01-25T01:40:50.161Z,100267.98
2018-01-25T01:43:18.488Z,100262.71
2018-01-25T01:45:46.836Z,100278.55
2018-01-25T01:48:15.167Z,100274.92
2018-01-25T01:50:43.514Z,100285.66
2018-01-25T01:53:11.850Z,100297.09
2018-01-25T01:55:40.186Z,100300.50
2018-01-25T01:58:08.510Z,100302.14
2018-01-25T02:00:36.844Z,100313.73
2018-01-25T02:03:05.173Z,100316.48
2018-01-25T02:05:33.782Z,100317.36
2018-01-25T02:08:02.073Z,100303.91
2018-01-25T02:10:30.414Z,100312.09
2018-01-25T02:12:58.729Z,100307.22
2018-01-25T02:15:27.066Z,100313.80
2018-01-25T02:17:55.381Z,100304.60
2018-01-25T02:20:23.717Z,100307.52
2018-01-25T02:22:52.034Z,100319.63
2018-01-25T02:25:20.368Z,100323.03
2018-01-25T02:27:48.689Z,100319.87
2018-01-25T02:30:17.021Z,100326.06
2018-01-25T02:32:45.337Z,100322.84
2018-01-25T02:35:13.674Z,100321.72
2018-01-25T02:37:41.994Z,100324.54
2018-01-25T02:40:10.333Z,100317.02
2018-01-25T02:42:39.489Z,100322.41
2018-01-25T02:45:07.829Z,100324.94
2018-01-25T02:47:36.145Z,100325.31
2018-01-25T02:50:04.474Z,100319.18
2018-01-25T02:52:32.795Z,100317.74
2018-01-25T02:55:01.125Z,100324.34
2018-01-25T02:57:29.445Z,100334.23
2018-01-25T02:59:57.782Z,100333.67
2018-01-25T03:02:26.089Z,100341.98
2018-01-25T03:04:54.421Z,100337.11
2018-01-25T03:07:22.733Z,100334.88
2018-01-25T03:09:51.069Z,100344.47
2018-01-25T03:12:19.385Z,100344.44
2018-01-25T03:14:47.717Z,100343.44
2018-01-25T03:17:16.041Z,100356.57
2018-01-25T03:19:44.353Z,100355.90
2018-01-25T03:22:12.693Z,100358.30
2018-01-25T03:24:41.005Z,100369.14
2018-01-25T03:27:09.338Z,100373.35
2018-01-25T03:29:37.661Z,100386.06
2018-01-25T03:32:06.001Z,100391.22
2018-01-25T03:34:34.313Z,100401.55
2018-01-25T03:37:02.654Z,100401.95
2018-01-25T03:39:30.970Z,100411.81
2018-01-25T03:41:59.301Z,100420.51
2018-01-25T03:44:27.621Z,100417.48
2018-01-25T03:46:55.953Z,100415.64
2018-01-25T03:49:24.270Z,100418.91
2018-01-25T03:51:52.605Z,100417.61
2018-01-25T03:54:20.926Z,100419.34
2018-01-25T03:56:49.260Z,100416.07
2018-01-25T03:59:17.574Z,100427.83
2018-01-25T04:01:45.912Z,100429.45
2018-01-25T04:04:14.225Z,100435.91
2018-01-25T04:06:42.568Z,100434.79
2018-01-25T04:09:10.881Z,100435.86
2018-01-25T04:11:39.221Z,100445.71
2018-01-25T04:14:07.533Z,100439.17
2018-01-25T04:16:35.876Z,100436.63
2018-01-25T04:19:04.397Z,100437.93
2018-01-25T04:21:32.733Z,100445.33
2018-01-25T04:24:01.054Z,100448.88
2018-01-25T04:26:29.390Z,100458.62
2018-01-25T04:28:57.705Z,100467.16
2018-01-25T04:31:26.041Z,100466.06
2018-01-25T04:33:54.353Z,100456.55
2018-01-25T04:36:22.690Z,100467.61
2018-01-25T04:38:51.001Z,100462.27
2018-01-25T04:41:19.342Z,100469.80
2018-01-25T04:43:47.657Z,100467.64
2018-01-25T04:46:16.001Z,100471.67
2018-01-25T04:48:44.321Z,100457.73
2018-01-25T04:51:12.657Z,100456.94
2018-01-25T04:53:40.974Z,100465.95
2018-01-25T04:56:09.312Z,100476.59
2018-01-25T04:58:37.620Z,100475.06
2018-01-25T05:01:05.965Z,100476.89
2018-01-25T05:03:34.277Z,100471.41
2018-01-25T05:06:02.609Z,100478.86
2018-01-25T05:08:30.929Z,100475.81
2018-01-25T05:10:59.261Z,100472.34
2018-01-25T05:13:27.577Z,100477.83
2018-01-25T05:15:55.925Z,100467.66
2018-01-25T05:18:24.241Z,100480.50
2018-01-25T05:20:52.573Z,100477.39
2018-01-25T05:23:20.909Z,100465.59
2018-01-25T05:25:49.219Z,100461.55
2018-01-25T05:28:17.550Z,100461.34
2018-01-25T05:30:45.870Z,100471.19
2018-01-25T05:33:14.213Z,100475.73
2018-01-25T05:35:42.525Z,100463.04
2018-01-25T05:38:10.862Z,100454.31
2018-01-25T05:40:39.182Z,100445.95
2018-01-25T05:43:07.555Z,100448.49
2018-01-25T05:45:36.925Z,100452.53
2018-01-25T05:48:06.132Z,100462.13
2018-01-25T05:50:34.451Z,100481.35
2018-01-25T05:53:06.896Z,100486.81
2018-01-25T05:55:36.352Z,100482.27
2018-01-25T05:58:04.701Z,100484.80
2018-01-25T06:00:33.018Z,100486.12
2018-01-25T06:03:01.357Z,100486.58
2018-01-25T06:05:29.680Z,100506.39
2018-01-25T06:07:58.018Z,100516.36
2018-01-25T06:10:26.395Z,100510.81
2018-01-25T06:12:54.757Z,100507.59
2018-01-25T06:15:23.115Z,100504.06
2018-01-25T06:17:51.453Z,100507.81
2018-01-25T06:20:19.773Z,100524.35
2018-01-25T06:22:48.113Z,100526.44
2018-01-25T06:25:16.453Z,100527.66
2018-01-25T06:27:44.785Z,100521.88
2018-01-25T06:30:13.201Z,100512.35
2018-01-25T06:32:41.546Z,100525.08
2018-01-25T06:35:09.868Z,100534.38
2018-01-25T06:37:38.206Z,100546.02
2018-01-25T06:40:06.521Z,100534.77
2018-01-25T06:42:34.849Z,100523.11
2018-01-25T06:45:03.186Z,100526.66
2018-01-25T06:47:31.818Z,100515.81
2018-01-25T06:50:00.133Z,100512.39
2018-01-25T06:52:28.478Z,100512.67
2018-01-25T06:54:56.793Z,100517.67
2018-01-25T06:57:25.131Z,100523.70
2018-01-25T06:59:53.593Z,100519.95
2018-01-25T07:02:22.095Z,100518.44
2018-01-25T07:04:50.421Z,100525.92
2018-01-25T07:07:18.765Z,100534.03
2018-01-25T07:09:47.082Z,100530.89
2018-01-25T07:12:15.422Z,100534.76
2018-01-25T07:14:43.746Z,100531.55
2018-01-25T07:17:12.458Z,100525.34
2018-01-25T07:19:40.778Z,100530.86
2018-01-25T07:22:09.121Z,100524.66
2018-01-25T07:24:37.462Z,100527.33
2018-01-25T07:27:05.811Z,100527.16
2018-01-25T07:29:34.134Z,100527.12
2018-01-25T07:32:02.458Z,100540.82
2018-01-25T07:34:30.803Z,100542.69
2018-01-25T07:36:59.350Z,100537.56
2018-01-25T07:39:27.704Z,100536.80
2018-01-25T07:41:56.018Z,100540.16
2018-01-25T07:44:24.366Z,100539.12
2018-01-25T07:46:52.690Z,100536.88
2018-01-25T07:49:21.033Z,100546.59
2018-01-25T07:51:49.357Z,100553.27
2018-01-25T07:54:17.702Z,100543.77
2018-01-25T07:56:46.034Z,100545.42
2018-01-25T07:59:14.374Z,100546.64
2018-01-25T08:01:42.697Z,100551.48
2018-01-25T08:04:11.038Z,100542.66
2018-01-25T08:06:39.358Z,100542.83
2018-01-25T08:09:07.701Z,100554.38
2018-01-25T08:11:36.025Z,100547.91
2018-01-25T08:14:04.370Z,100549.92
2018-01-25T08:16:38.370Z,100550.05
2018-01-25T08:19:07.229Z,100552.47
2018-01-25T08:21:35.590Z,100549.47
2018-01-25T08:24:03.945Z,100560.08
2018-01-25T08:26:33.173Z,100548.70
2018-01-25T08:29:01.518Z,100551.23
2018-01-25T08:31:29.841Z,100544.76
2018-01-25T08:33:58.182Z,100544.73
2018-01-25T08:36:26.510Z,100537.98
2018-01-25T08:38:54.853Z,100541.41
2018-01-25T08:41:23.178Z,100537.83
2018-01-25T08:43:51.520Z,100541.77
2018-01-25T08:46:19.841Z,100542.41
2018-01-25T08:48:48.189Z,100544.09
2018-01-25T08:51:16.509Z,100546.71
2018-01-25T08:53:44.849Z,100545.30
2018-01-25T08:56:13.170Z,100552.93
2018-01-25T08:58:41.761Z,100552.56
2018-01-25T09:01:10.086Z,100556.70
2018-01-25T09:03:38.433Z,100560.87
2018-01-25T09:06:06.757Z,100555.06
2018-01-25T09:08:35.101Z,100563.91
2018-01-25T09:11:03.422Z,100560.00
2018-01-25T09:13:31.772Z,100564.24
2018-01-25T09:16:00.094Z,100570.88
2018-01-25T09:18:28.571Z,100575.47
2018-01-25T09:20:56.881Z,100568.35
2018-01-25T09:23:25.222Z,100577.69
2018-01-25T09:25:53.545Z,100569.84
2018-01-25T09:28:21.889Z,100573.70
2018-01-25T09:30:50.209Z,100583.67
2018-01-25T09:33:18.560Z,100578.91
2018-01-25T09:35:46.877Z,100575.40
2018-01-25T09:38:15.189Z,100570.59
2018-01-25T09:40:43.529Z,100566.30
2018-01-25T09:43:11.849Z,100563.30
2018-01-25T09:45:40.189Z,100564.91
2018-01-25T09:48:08.516Z,100570.75
2018-01-25T09:50:36.857Z,100580.27
2018-01-25T09:53:05.165Z,100578.38
2018-01-25T09:55:33.724Z,100578.45
2018-01-25T09:58:02.025Z,100589.55
2018-01-25T10:00:30.373Z,100586.59
2018-01-25T10:02:58.857Z,100586.13
2018-01-25T10:05:27.194Z,100592.38
2018-01-25T10:07:55.517Z,100582.78
2018-01-25T10:10:23.861Z,100576.41
2018-01-25T10:12:52.182Z,100571.91
2018-01-25T10:15:20.525Z,100577.02
2018-01-25T10:17:48.846Z,100572.70
2018-01-25T10:20:17.189Z,100576.23
2018-01-25T10:22:46.277Z,100565.23
2018-01-25T10:25:15.293Z,100558.83
2018-01-25T10:27:43.627Z,100560.62
2018-01-25T10:30:12.281Z,100573.41
2018-01-25T10:32:40.607Z,100573.97
2018-01-25T10:35:08.956Z,100569.54
2018-01-25T10:37:37.265Z,100577.30
2018-01-25T10:40:05.605Z,100569.70
2018-01-25T10:42:33.925Z,100562.92
2018-01-25T10:45:02.265Z,100565.26
2018-01-25T10:47:30.638Z,100570.89
2018-01-25T10:49:58.925Z,100575.63
2018-01-25T10:52:27.309Z,100571.95
2018-01-25T10:54:55.629Z,100571.65
2018-01-25T10:57:23.976Z,100566.81
2018-01-25T10:59:52.294Z,100575.63
2018-01-25T11:02:20.614Z,100568.69
2018-01-25T11:04:50.005Z,100567.19
2018-01-25T11:07:18.362Z,100567.91
2018-01-25T11:09:46.702Z,100561.39
2018-01-25T11:12:15.022Z,100550.72
2018-01-25T11:14:43.361Z,100565.01
2018-01-25T11:17:11.686Z,100552.58
2018-01-25T11:19:40.022Z,100549.76
2018-01-25T11:22:08.333Z,100558.28
2018-01-25T11:24:36.678Z,100559.25
2018-01-25T11:27:05.053Z,100562.44
2018-01-25T11:29:33.390Z,100553.52
2018-01-25T11:32:01.755Z,100562.31
2018-01-25T11:34:30.098Z,100560.62
2018-01-25T11:36:58.413Z,100563.91
2018-01-25T11:39:26.735Z,100566.80
2018-01-25T11:41:55.121Z,100559.91
2018-01-25T11:44:23.460Z,100563.93
2018-01-25T11:46:51.805Z,100555.98
2018-01-25T11:49:20.127Z,100559.23
2018-01-25T11:51:48.486Z,100557.68
2018-01-25T11:54:16.814Z,100554.48
2018-01-25T11:56:45.163Z,100550.41
2018-01-25T11:59:13.483Z,100545.41
2018-01-25T12:01:41.817Z,100547.86
2018-01-25T12:04:10.141Z,100541.75
2018-01-25T12:06:38.482Z,100540.59
2018-01-25T12:09:06.802Z,100538.34
2018-01-25T12:11:35.141Z,100534.19
2018-01-25T12:14:03.465Z,100530.80
2018-01-25T12:16:31.814Z,100535.97
2018-01-25T12:19:00.143Z,100543.16
2018-01-25T12:21:28.485Z,100546.84
2018-01-25T12:23:56.810Z,100540.83
2018-01-25T12:26:26.592Z,100539.46
2018-01-25T12:28:54.921Z,100541.92
2018-01-25T12:31:23.294Z,100538.34
2018-01-25T12:33:52.489Z,100543.41
2018-01-25T12:36:20.937Z,100552.41
2018-01-25T12:38:49.248Z,100540.14
2018-01-25T12:41:17.594Z,100543.78
2018-01-25T12:43:45.910Z,100542.67
2018-01-25T12:46:14.249Z,100539.91
2018-01-25T12:48:42.569Z,100539.13
2018-01-25T12:51:10.918Z,100539.27
2018-01-25T12:53:40.238Z,100528.91
2018-01-25T12:56:08.557Z,100528.19
2018-01-25T12:58:36.904Z,100517.84
2018-01-25T13:01:05.221Z,100510.00
2018-01-25T13:03:33.566Z,100503.59
2018-01-25T13:06:02.865Z,100498.27
2018-01-25T13:08:31.213Z,100483.89
2018-01-25T13:10:59.542Z,100483.55
2018-01-25T13:13:28.202Z,100482.31
2018-01-25T13:15:56.641Z,100484.41
2018-01-25T13:18:24.985Z,100490.85
2018-01-25T13:20:53.318Z,100497.13
2018-01-25T13:23:21.665Z,100495.73
2018-01-25T13:25:49.994Z,100498.78
2018-01-25T13:28:18.349Z,100505.92
2018-01-25T13:30:46.680Z,100498.24
2018-01-25T13:33:20.720Z,100496.48
2018-01-25T13:35:49.054Z,100490.73
2018-01-25T13:38:17.410Z,100490.70
2018-01-25T13:40:45.744Z,100489.19
2018-01-25T13:43:14.090Z,100506.20
2018-01-25T13:45:42.409Z,100509.62
2018-01-25T13:48:10.757Z,100510.33
2018-01-25T13:50:39.096Z,100516.55
2018-01-25T13:53:07.438Z,100513.80
2018-01-25T13:55:35.762Z,100518.55
2018-01-25T13:58:04.114Z,100519.91
2018-01-25T14:00:32.442Z,100510.49
2018-01-25T14:03:00.805Z,100514.84
2018-01-25T14:05:29.137Z,100507.63
2018-01-25T14:07:57.486Z,100508.02
2018-01-25T14:10:25.818Z,100509.06
2018-01-25T14:12:54.206Z,100500.68
2018-01-25T14:15:22.545Z,100499.92
2018-01-25T14:17:50.930Z,100497.43
2018-01-25T14:20:19.261Z,100494.03
2018-01-25T14:22:47.605Z,100489.91
2018-01-25T14:25:15.944Z,100480.84
2018-01-25T14:27:44.301Z,100482.55
2018-01-25T14:30:12.633Z,100473.52
2018-01-25T14:32:40.985Z,100473.42
2018-01-25T14:35:09.310Z,100468.88
2018-01-25T14:37:37.657Z,100467.84
2018-01-25T14:40:05.985Z,100466.88
2018-01-25T14:42:34.338Z,100457.75
2018-01-25T14:45:02.667Z,100458.16
2018-01-25T14:47:31.014Z,100451.96
2018-01-25T14:49:59.345Z,100451.78
2018-01-25T14:52:27.701Z,100456.50
2018-01-25T14:54:56.358Z,100449.77
2018-01-25T14:57:24.701Z,100450.70
2018-01-25T14:59:53.061Z,100457.81
2018-01-25T15:02:21.361Z,100460.75
2018-01-25T15:04:49.823Z,100465.98
2018-01-25T15:07:18.397Z,100461.73
2018-01-25T15:09:46.747Z,100466.33
2018-01-25T15:12:15.069Z,100469.62
2018-01-25T15:14:43.420Z,100467.49
2018-01-25T15:17:11.750Z,100459.95
2018-01-25T15:19:40.113Z,100460.30
2018-01-25T15:22:08.449Z,100455.75
2018-01-25T15:24:36.802Z,100462.89
2018-01-25T15:27:05.202Z,100454.28
2018-01-25T15:29:33.593Z,100460.22
2018-01-25T15:32:03.326Z,100467.55
2018-01-25T15:34:31.788Z,100462.42
2018-01-25T15:37:00.249Z,100468.47
2018-01-25T15:39:28.592Z,100470.19
2018-01-25T15:41:56.987Z,100471.20
2018-01-25T15:44:25.453Z,100463.23
2018-01-25T15:46:53.781Z,100452.52
2018-01-25T15:49:22.165Z,100457.83
2018-01-25T15:51:50.490Z,100465.81
2018-01-25T15:54:18.837Z,100468.00
2018-01-25T15:56:47.157Z,100470.55
2018-01-25T15:59:15.503Z,100464.28
2018-01-25T16:01:43.825Z,100476.27
2018-01-25T16:04:12.174Z,100474.36
2018-01-25T16:06:40.502Z,100473.77
2018-01-25T16:09:08.846Z,100479.09
2018-01-25T16:11:37.170Z,100476.98
2018-01-25T16:14:05.508Z,100473.19
2018-01-25T16:16:33.837Z,100477.16
2018-01-25T16:19:02.186Z,100473.09
2018-01-25T16:21:30.510Z,100472.14
2018-01-25T16:23:58.849Z,100465.20
2018-01-25T16:26:27.174Z,100466.59
2018-01-25T16:28:55.650Z,100468.69
2018-01-25T16:31:23.973Z,100471.97
2018-01-25T16:33:52.365Z,100473.84
2018-01-25T16:36:20.638Z,100476.72
2018-01-25T16:38:48.992Z,100474.14
2018-01-25T16:41:17.309Z,100474.80
2018-01-25T16:43:45.653Z,100475.05
2018-01-25T16:46:13.982Z,100476.30
2018-01-25T16:48:42.330Z,100478.19
2018-01-25T16:51:10.650Z,100495.70
2018-01-25T16:53:38.989Z,100496.56
2018-01-25T16:56:07.309Z,100494.41
2018-01-25T16:58:35.649Z,100491.43
2018-01-25T17:01:03.975Z,100489.44
2018-01-25T17:03:32.298Z,100499.55
2018-01-25T17:06:00.643Z,100506.75
2018-01-25T17:08:28.965Z,100496.19
2018-01-25T17:10:57.310Z,100502.66
2018-01-25T17:13:25.633Z,100497.59
2018-01-25T17:15:53.974Z,100499.98
2018-01-25T17:18:22.301Z,100497.77
2018-01-25T17:20:50.649Z,100499.93
2018-01-25T17:23:18.968Z,100501.11
2018-01-25T17:25:47.305Z,100492.62
2018-01-25T17:28:16.350Z,100490.77
2018-01-25T17:30:44.690Z,100486.16
2018-01-25T17:33:13.061Z,100480.70
2018-01-25T17:35:41.440Z,100479.78
2018-01-25T17:38:09.757Z,100480.17
2018-01-25T17:40:38.133Z,100479.63
2018-01-25T17:43:06.713Z,100486.25
2018-01-25T17:45:35.666Z,100483.20
2018-01-25T17:48:03.990Z,100494.81
2018-01-25T17:50:32.455Z,100489.00
2018-01-25T17:53:00.772Z,100486.98
2018-01-25T17:55:29.100Z,100483.41
2018-01-25T17:57:57.427Z,100485.85
2018-01-25T18:00:25.769Z,100495.40
2018-01-25T18:02:54.095Z,100493.11
2018-01-25T18:05:22.448Z,100495.07
2018-01-25T18:07:51.016Z,100502.14
2018-01-25T18:10:19.357Z,100502.73
2018-01-25T18:12:47.705Z,100499.09
2018-01-25T18:15:16.451Z,100491.60
2018-01-25T18:17:44.786Z,100494.66
2018-01-25T18:20:13.129Z,100495.70
2018-01-25T18:22:41.565Z,100502.38
2018-01-25T18:25:09.934Z,100504.89
2018-01-25T18:27:38.245Z,100505.68
2018-01-25T18:30:06.577Z,100511.52
2018-01-25T18:32:34.905Z,100514.56
2018-01-25T18:35:03.320Z,100509.02
2018-01-25T18:37:31.643Z,100516.08
2018-01-25T18:39:59.981Z,100519.38
2018-01-25T18:42:28.411Z,100521.63
2018-01-25T18:44:56.753Z,100517.58
2018-01-25T18:47:26.217Z,100518.87
2018-01-25T18:49:54.701Z,100520.61
2018-01-25T18:52:23.022Z,100519.18
2018-01-25T18:54:51.445Z,100525.13
2018-01-25T18:57:20.183Z,100520.44
2018-01-25T18:59:48.546Z,100524.35
2018-01-25T19:02:16.894Z,100523.89
2018-01-25T19:04:45.318Z,100527.88
2018-01-25T19:07:13.638Z,100532.25
2018-01-25T19:09:42.022Z,100527.38
2018-01-25T19:12:10.602Z,100523.93
2018-01-25T19:14:38.909Z,100526.25
2018-01-25T19:17:07.358Z,100526.56
2018-01-25T19:19:35.761Z,100530.97
2018-01-25T19:22:04.104Z,100531.02
2018-01-25T19:24:32.585Z,100527.50
2018-01-25T19:27:00.909Z,100520.31
2018-01-25T19:29:29.225Z,100530.97
2018-01-25T19:31:57.570Z,100529.52
2018-01-25T19:34:25.885Z,100525.45
2018-01-25T19:36:54.221Z,100519.73
2018-01-25T19:39:22.541Z,100528.26
2018-01-25T19:41:50.885Z,100522.61
2018-01-25T19:44:19.210Z,100524.30
2018-01-25T19:46:47.545Z,100520.45
2018-01-25T19:49:16.093Z,100522.78
2018-01-25T19:51:44.429Z,100523.06
2018-01-25T19:54:12.745Z,100516.93
2018-01-25T19:56:41.108Z,100523.02
2018-01-25T19:59:09.429Z,100516.38
2018-01-25T20:01:38.109Z,100522.68
2018-01-25T20:04:07.394Z,100520.48
2018-01-25T20:06:35.975Z,100518.69
2018-01-25T20:09:04.294Z,100516.75
2018-01-25T20:11:32.706Z,100515.17
2018-01-25T20:14:01.005Z,100521.36
2018-01-25T20:16:30.333Z,100519.76
2018-01-25T20:18:58.661Z,100524.81
2018-01-25T20:21:27.009Z,100533.38
2018-01-25T20:23:55.399Z,100534.44
2018-01-25T20:26:23.957Z,100539.03
2018-01-25T20:28:52.433Z,100540.22
2018-01-25T20:31:20.753Z,100541.72
2018-01-25T20:33:49.072Z,100539.78
2018-01-25T20:36:17.404Z,100539.00
2018-01-25T20:38:45.725Z,100543.38
2018-01-25T20:41:14.073Z,100538.27
2018-01-25T20:43:42.389Z,100542.59
2018-01-25T20:46:10.721Z,100542.83
2018-01-25T20:48:39.037Z,100544.34
2018-01-25T20:51:07.383Z,100536.70
2018-01-25T20:53:35.710Z,100545.50
2018-01-25T20:56:04.990Z,100547.73
2018-01-25T20:58:33.314Z,100544.05
2018-01-25T21:01:01.645Z,100539.89
2018-01-25T21:03:29.978Z,100539.63
2018-01-25T21:05:59.201Z,100538.48
2018-01-25T21:08:27.610Z,100536.78
2018-01-25T21:10:55.985Z,100531.83
2018-01-25T21:13:24.298Z,100532.76
2018-01-25T21:15:53.473Z,100526.02
2018-01-25T21:18:21.809Z,100530.52
2018-01-25T21:20:50.125Z,100530.95
2018-01-25T21:23:18.482Z,100533.05
2018-01-25T21:25:48.546Z,100541.07
2018-01-25T21:28:16.877Z,100548.84
2018-01-25T21:30:45.249Z,100551.12
2018-01-25T21:33:13.577Z,100550.69
2018-01-25T21:35:42.894Z,100555.00
2018-01-25T21:38:11.245Z,100543.33
2018-01-25T21:40:39.600Z,100543.00
2018-01-25T21:43:07.933Z,100551.05
2018-01-25T21:45:37.213Z,100548.94
2018-01-25T21:48:05.554Z,100552.47
2018-01-25T21:50:44.707Z,100557.48
2018-01-25T21:53:18.805Z,100559.72
2018-01-25T21:55:47.124Z,100562.95
2018-01-25T21:58:15.466Z,100569.33
2018-01-25T22:00:43.829Z,100567.03
2018-01-25T22:03:12.221Z,100565.78
2018-01-25T22:05:40.541Z,100567.13
2018-01-25T22:08:08.877Z,100568.90
2018-01-25T22:10:37.223Z,100570.39
2018-01-25T22:13:05.727Z,100572.07
2018-01-25T22:15:34.037Z,100577.61
2018-01-25T22:18:02.369Z,100580.44
2018-01-25T22:20:30.687Z,100577.27
2018-01-25T22:22:59.026Z,100580.23
2018-01-25T22:25:27.351Z,100578.36
2018-01-25T22:27:55.686Z,100582.55
2018-01-25T22:30:23.996Z,100587.52
2018-01-25T22:32:52.332Z,100577.70
2018-01-25T22:35:20.649Z,100578.17
2018-01-25T22:37:48.989Z,100575.43
2018-01-25T22:40:17.300Z,100574.17
2018-01-25T22:42:45.641Z,100572.62
2018-01-25T22:45:13.964Z,100567.63
2018-01-25T22:47:42.304Z,100577.75
2018-01-25T22:50:10.625Z,100580.05
2018-01-25T22:52:38.966Z,100583.77
2018-01-25T22:55:07.295Z,100576.43
2018-01-25T22:57:35.622Z,100572.62
2018-01-25T23:00:03.946Z,100579.63
2018-01-25T23:02:32.276Z,100587.52
2018-01-25T23:05:00.592Z,100586.30
2018-01-25T23:07:28.928Z,100586.45
2018-01-25T23:09:57.245Z,100589.19
2018-01-25T23:12:25.572Z,100595.65
2018-01-25T23:14:53.886Z,100599.85
2018-01-25T23:17:22.217Z,100600.27
2018-01-25T23:19:50.533Z,100601.07
2018-01-25T23:22:18.870Z,100613.03
2018-01-25T23:24:47.189Z,100612.53
2018-01-25T23:27:15.530Z,100614.97
2018-01-25T23:29:43.841Z,100612.11
2018-01-25T23:32:12.160Z,100617.33
2018-01-25T23:34:40.504Z,100620.91
2018-01-25T23:37:08.809Z,100615.49
2018-01-25T23:39:37.140Z,100621.30
2018-01-25T23:42:05.452Z,100612.39
2018-01-25T23:44:33.793Z,100611.44
2018-01-25T23:47:02.152Z,100606.78
2018-01-25T23:49:30.445Z,100603.20
2018-01-25T23:51:58.765Z,100606.49
2018-01-25T23:54:27.105Z,100609.45
2018-01-25T23:56:55.426Z,100605.36
2018-01-25T23:59:23.756Z,100607.53
